首页
METAR-TAF:

METAR-TAF

机场 :

鳳凰城天港國際機場

鳳凰城, 亞利桑那州, 美国

纬度: 33-26-03N, 经度: 112-03-04W, 海拔: 345米

当前天气观测

该预报发布于35分钟前的23:51 UTC
风速13节,风向西,有时为17节阵风
温度 44°C
湿度 6%
气压 1003 hPa
能見度: 16.1公里
天空无云

METAR: KPHX 152351Z 28013G17KT 10SM CLR 44/M01 A2961 RMK AO2 SLP005 T04391011 10444 20378 56022

时间: 17:26 (00:26 UTC)

预报

该预报发布于58分钟前的23:28 UTC
预报有效从16日的 00点(UTC)到 17日的 06点(UTC)
风速9节,风向西,有时为17节阵风
能見度: 10公里
天空无云
从 16日的 0500点(UTC)
风速8节,风向西
能見度: 10公里
天空无云
从 16日的 1000点(UTC)
风速6节,风向东转东南
能見度: 10公里
天空无云
从 16日的 1700点(UTC)
风速6节,风向
能見度: 10公里
天空无云
从 16日的 2000点(UTC)
风速12节,风向西,有时为22节阵风
能見度: 10公里
天空无云
从 17日的 0300点(UTC)
风速7节,风向西
能見度: 10公里
天空无云

TAF: KPHX 152328Z 1600/1706 27009G17KT P6SM SKC FM160500 27008KT P6SM SKC FM161000 11006KT P6SM SKC FM161700 17006KT P6SM SKC FM162000 26012G22KT P6SM SKC FM170300 26007KT P6SM SKC

超过4000个机场的气象观测和天气预报(METAR&TAF报告)。

可查询的气象台以黄色和红色小点在地图上表示。

将鼠标移到小点上方,可查看气象台名称。

然后点击查看天气观测和预报。

如需切换地图:点击带黑十字的绿色按钮放大地图;点击带横线的绿色按钮缩小地图;或者点击绿色箭头查看邻近地区的地图。


METAR-TAF: